Time;durP1;ratioP1;P1;durP2;ratioP2;P2;SDS_P1;SDS_P2;PMS_P1;PMS_P2;Temp;Humidity;BMP_temperature;BMP_pressure;BME280_temperature;BME280_humidity;BME280_pressure;Samples;Min_cycle;Max_cycle;Signal;HPM_P1;HPM_P2
2022/09/27 00:00:50;;;;;;;30.62;23.45;;;;;;;;;;1705253;83;26266;-56
2022/09/27 00:03:17;;;;;;;30.17;24.18;;;;;;;;;;1730221;81;26324;-49
2022/09/27 00:05:44;;;;;;;29.72;23.52;;;;;;;;;;1737548;81;26285;-50
2022/09/27 00:08:12;;;;;;;31.12;22.98;;;;;;;;;;1747093;81;26317;-47
2022/09/27 00:10:39;;;;;;;32.05;24.52;;;;;;;;;;1728216;81;26698;-52
2022/09/27 00:13:06;;;;;;;32.58;23.62;;;;;;;;;;1718747;81;26277;-50
2022/09/27 00:15:34;;;;;;;31.37;24.15;;;;;;;;;;1727911;82;26294;-53
2022/09/27 00:18:01;;;;;;;29.70;24.18;;;;;;;;;;1727762;81;26374;-49
2022/09/27 00:20:28;;;;;;;32.40;25.05;;;;;;;;;;1724416;81;26309;-51
2022/09/27 00:22:55;;;;;;;31.42;24.60;;;;;;;;;;1725803;83;26346;-52
2022/09/27 00:25:23;;;;;;;32.48;25.37;;;;;;;;;;1727729;82;26387;-52
2022/09/27 00:27:50;;;;;;;31.40;24.63;;;;;;;;;;1731047;81;26342;-46
2022/09/27 00:30:18;;;;;;;33.35;25.20;;;;;;;;;;1709452;82;26796;-53
2022/09/27 00:32:45;;;;;;;35.48;26.00;;;;;;;;;;1724810;82;26332;-52
2022/09/27 00:35:12;;;;;;;33.38;25.45;;;;;;;;;;1740843;82;26346;-51
2022/09/27 00:37:40;;;;;;;37.05;27.02;;;;;;;;;;1745135;81;26611;-54
2022/09/27 00:40:07;;;;;;;33.00;26.30;;;;;;;;;;1733458;81;26352;-52
2022/09/27 00:42:35;;;;;;;32.00;25.55;;;;;;;;;;1713295;83;26297;-53
2022/09/27 00:45:07;;;;;;;34.10;26.37;;;;;;;;;;1732460;82;26608;-53
2022/09/27 00:47:36;;;;;;;35.15;27.25;;;;;;;;;;1712273;83;26363;-47
2022/09/27 00:50:04;;;;;;;34.03;26.65;;;;;;;;;;1727850;83;26754;-48
2022/09/27 00:52:36;;;;;;;32.83;25.80;;;;;;;;;;1722076;82;27781;-53
2022/09/27 00:55:05;;;;;;;31.75;25.97;;;;;;;;;;1726914;81;26309;-45
2022/09/27 00:57:33;;;;;;;33.95;26.73;;;;;;;;;;1728688;82;26272;-53
2022/09/27 01:00:04;;;;;;;34.75;27.50;;;;;;;;;;1727991;83;26415;-53
2022/09/27 01:02:35;;;;;;;33.65;26.57;;;;;;;;;;1723478;82;26316;-48
2022/09/27 01:05:03;;;;;;;35.58;27.87;;;;;;;;;;1716361;81;26835;-49
2022/09/27 01:07:30;;;;;;;33.63;26.70;;;;;;;;;;1727926;82;26356;-54
2022/09/27 01:09:58;;;;;;;34.23;27.25;;;;;;;;;;1728053;83;26300;-52
2022/09/27 01:12:36;;;;;;;34.85;26.68;;;;;;;;;;1748579;81;26895;-49
2022/09/27 01:15:13;;;;;;;36.63;27.80;;;;;;;;;;1725809;83;26359;-49
2022/09/27 01:17:48;;;;;;;35.58;27.67;;;;;;;;;;1727788;83;26285;-48
2022/09/27 01:20:33;;;;;;;36.10;28.42;;;;;;;;;;1727454;82;26322;-50
2022/09/27 01:23:18;;;;;;;38.17;28.50;;;;;;;;;;1724798;83;26414;-47
2022/09/27 01:26:04;;;;;;;38.17;28.40;;;;;;;;;;1718375;83;26355;-51
2022/09/27 01:28:33;;;;;;;36.73;28.38;;;;;;;;;;1711445;83;26582;-48
2022/09/27 01:31:08;;;;;;;35.17;28.07;;;;;;;;;;1724227;81;26297;-49
2022/09/27 01:33:42;;;;;;;38.20;29.07;;;;;;;;;;1726311;82;26399;-48
2022/09/27 01:36:17;;;;;;;36.58;28.40;;;;;;;;;;1727367;82;26284;-51
2022/09/27 01:38:46;;;;;;;35.60;28.23;;;;;;;;;;1726239;83;26282;-52
2022/09/27 01:41:15;;;;;;;36.50;28.25;;;;;;;;;;1726249;82;26305;-51
2022/09/27 01:43:43;;;;;;;36.23;28.07;;;;;;;;;;1720565;81;26245;-56
2022/09/27 01:46:12;;;;;;;35.83;28.00;;;;;;;;;;1718317;83;26351;-51
2022/09/27 01:48:41;;;;;;;36.68;27.98;;;;;;;;;;1725709;83;26355;-55
2022/09/27 01:51:13;;;;;;;36.53;27.90;;;;;;;;;;1726297;83;26273;-47
2022/09/27 01:53:45;;;;;;;34.75;27.52;;;;;;;;;;1721038;82;26356;-56
2022/09/27 01:56:16;;;;;;;34.67;28.23;;;;;;;;;;1716273;83;26300;-47
2022/09/27 01:58:48;;;;;;;36.25;28.23;;;;;;;;;;1724136;83;26289;-52
2022/09/27 02:01:16;;;;;;;38.10;28.23;;;;;;;;;;1725976;83;26294;-49
2022/09/27 02:03:44;;;;;;;36.60;28.60;;;;;;;;;;1724800;81;26352;-53
2022/09/27 02:06:26;;;;;;;36.05;27.87;;;;;;;;;;1726312;81;26281;-48
2022/09/27 02:08:55;;;;;;;36.73;28.02;;;;;;;;;;1724971;82;26375;-52
2022/09/27 02:11:22;;;;;;;37.42;28.27;;;;;;;;;;1739349;81;26277;-48
2022/09/27 02:13:57;;;;;;;36.70;28.95;;;;;;;;;;1739294;81;26229;-48
2022/09/27 02:16:34;;;;;;;34.55;27.85;;;;;;;;;;1727850;82;26734;-50
2022/09/27 02:19:15;;;;;;;37.48;28.47;;;;;;;;;;1711348;83;26617;-50
2022/09/27 02:21:56;;;;;;;37.17;28.73;;;;;;;;;;1712835;83;26363;-50
2022/09/27 02:24:25;;;;;;;35.52;27.67;;;;;;;;;;1724761;83;26373;-55
2022/09/27 02:26:54;;;;;;;36.15;28.65;;;;;;;;;;1728624;82;26379;-48
2022/09/27 02:29:25;;;;;;;38.70;28.95;;;;;;;;;;1715750;82;26315;-48
2022/09/27 02:31:53;;;;;;;35.43;27.85;;;;;;;;;;1726173;81;26383;-54
2022/09/27 02:34:21;;;;;;;36.55;28.55;;;;;;;;;;1725744;82;26346;-51
2022/09/27 02:36:52;;;;;;;36.90;28.65;;;;;;;;;;1731522;80;26694;-52
2022/09/27 02:39:18;;;;;;;38.42;29.25;;;;;;;;;;1725445;83;26568;-51
2022/09/27 02:41:46;;;;;;;37.88;29.12;;;;;;;;;;1716176;82;26248;-55
2022/09/27 02:44:14;;;;;;;37.60;29.23;;;;;;;;;;1724066;81;27620;-52
2022/09/27 02:46:43;;;;;;;36.90;28.35;;;;;;;;;;1719807;81;26366;-56
2022/09/27 02:49:12;;;;;;;37.23;28.27;;;;;;;;;;1726827;82;26379;-48
2022/09/27 02:51:43;;;;;;;37.23;28.05;;;;;;;;;;1714292;82;26291;-50
2022/09/27 02:54:18;;;;;;;36.80;28.45;;;;;;;;;;1732169;81;26285;-52
2022/09/27 02:56:56;;;;;;;35.95;28.50;;;;;;;;;;1726841;82;26758;-54
2022/09/27 02:59:25;;;;;;;35.50;27.37;;;;;;;;;;1726620;83;26848;-55
2022/09/27 03:02:10;;;;;;;37.00;28.42;;;;;;;;;;1724483;81;27617;-52
2022/09/27 03:04:39;;;;;;;35.28;27.80;;;;;;;;;;1726465;81;26668;-52
2022/09/27 03:07:06;;;;;;;36.13;28.00;;;;;;;;;;1721168;82;26703;-50
2022/09/27 03:09:41;;;;;;;35.83;28.10;;;;;;;;;;1726392;81;26372;-50
2022/09/27 03:12:08;;;;;;;36.80;27.55;;;;;;;;;;1744489;81;26352;-52
2022/09/27 03:14:36;;;;;;;33.92;26.87;;;;;;;;;;1729864;81;26383;-50
2022/09/27 03:17:03;;;;;;;35.15;27.13;;;;;;;;;;1722967;81;27287;-47
2022/09/27 03:19:30;;;;;;;33.73;26.62;;;;;;;;;;1726114;82;26297;-48
2022/09/27 03:21:58;;;;;;;32.38;26.10;;;;;;;;;;1723397;83;26293;-48
2022/09/27 03:24:25;;;;;;;33.42;26.05;;;;;;;;;;1714281;81;26303;-54
2022/09/27 03:26:52;;;;;;;34.70;26.48;;;;;;;;;;1721316;81;26284;-52
2022/09/27 03:29:19;;;;;;;32.48;26.12;;;;;;;;;;1727620;83;26234;-54
2022/09/27 03:31:47;;;;;;;30.75;24.98;;;;;;;;;;1719136;81;26293;-48
2022/09/27 03:34:14;;;;;;;32.45;25.85;;;;;;;;;;1722419;82;26313;-50
2022/09/27 03:36:42;;;;;;;34.85;25.68;;;;;;;;;;1725891;81;26368;-53
2022/09/27 03:39:09;;;;;;;31.02;24.60;;;;;;;;;;1725369;83;27359;-50
2022/09/27 03:41:37;;;;;;;34.38;25.77;;;;;;;;;;1721472;83;26832;-49
2022/09/27 03:44:04;;;;;;;31.85;25.25;;;;;;;;;;1725169;83;26371;-49
2022/09/27 03:46:31;;;;;;;35.00;26.35;;;;;;;;;;1725059;82;26301;-51
2022/09/27 03:48:59;;;;;;;34.23;26.15;;;;;;;;;;1725047;83;26293;-48
2022/09/27 03:51:26;;;;;;;35.40;25.65;;;;;;;;;;1725796;82;26359;-51
2022/09/27 03:53:54;;;;;;;34.00;24.98;;;;;;;;;;1726946;83;26371;-48
2022/09/27 03:56:24;;;;;;;35.40;25.40;;;;;;;;;;1723437;82;26745;-53
2022/09/27 03:58:51;;;;;;;33.53;25.68;;;;;;;;;;1727192;83;26819;-50
2022/09/27 04:01:19;;;;;;;34.00;25.88;;;;;;;;;;1727872;82;26715;-47
2022/09/27 04:03:46;;;;;;;34.83;25.95;;;;;;;;;;1726037;83;26309;-50
2022/09/27 04:06:13;;;;;;;33.10;25.20;;;;;;;;;;1731010;82;26301;-53
2022/09/27 04:08:41;;;;;;;33.98;25.35;;;;;;;;;;1726589;82;27343;-49
2022/09/27 04:11:08;;;;;;;35.00;25.50;;;;;;;;;;1730808;81;26356;-49
2022/09/27 04:13:35;;;;;;;34.58;25.25;;;;;;;;;;1725101;82;26374;-52
2022/09/27 04:16:03;;;;;;;32.65;25.23;;;;;;;;;;1725605;83;26814;-50
2022/09/27 04:18:30;;;;;;;39.40;25.17;;;;;;;;;;1729483;82;26218;-47
2022/09/27 04:20:57;;;;;;;36.35;25.85;;;;;;;;;;1726927;83;26300;-51
2022/09/27 04:23:25;;;;;;;33.33;25.05;;;;;;;;;;1723801;82;26273;-55
2022/09/27 04:25:52;;;;;;;37.53;24.87;;;;;;;;;;1727863;82;26382;-51
2022/09/27 04:28:19;;;;;;;32.67;24.92;;;;;;;;;;1726102;81;26347;-51
2022/09/27 04:30:47;;;;;;;34.73;25.12;;;;;;;;;;1725478;82;26366;-54
2022/09/27 04:33:15;;;;;;;35.03;25.97;;;;;;;;;;1725691;83;26312;-49
2022/09/27 04:38:28;;;;;;;34.53;24.98;;;;;;;;;;1711770;83;26368;-48
2022/09/27 04:40:55;;;;;;;32.45;24.50;;;;;;;;;;1712626;83;26332;-49
2022/09/27 04:43:22;;;;;;;33.73;25.75;;;;;;;;;;1714710;83;26394;-46
2022/09/27 04:45:50;;;;;;;36.42;25.12;;;;;;;;;;1714329;82;26282;-52
2022/09/27 04:48:17;;;;;;;32.45;24.60;;;;;;;;;;1711108;83;26289;-53
2022/09/27 04:50:44;;;;;;;32.85;24.43;;;;;;;;;;1714710;83;26331;-48
2022/09/27 04:53:15;;;;;;;30.77;24.47;;;;;;;;;;1713518;82;26333;-49
2022/09/27 04:55:46;;;;;;;31.12;24.35;;;;;;;;;;1714578;82;26734;-50
2022/09/27 04:58:13;;;;;;;31.05;24.35;;;;;;;;;;1713741;83;26726;-53
2022/09/27 05:00:44;;;;;;;33.98;25.10;;;;;;;;;;1714341;83;26313;-54
2022/09/27 05:03:11;;;;;;;33.58;24.85;;;;;;;;;;1714303;83;26369;-53
2022/09/27 05:05:38;;;;;;;32.73;24.77;;;;;;;;;;1711127;83;26344;-52
2022/09/27 05:08:06;;;;;;;31.50;23.95;;;;;;;;;;1708771;82;26345;-50
2022/09/27 05:10:33;;;;;;;31.15;23.98;;;;;;;;;;1712600;83;26313;-49
2022/09/27 05:13:00;;;;;;;32.98;24.27;;;;;;;;;;1714625;82;26298;-48
2022/09/27 05:15:28;;;;;;;29.52;22.55;;;;;;;;;;1714284;82;26380;-48
2022/09/27 05:17:55;;;;;;;30.20;23.27;;;;;;;;;;1717412;82;26313;-48
2022/09/27 05:20:24;;;;;;;28.60;22.27;;;;;;;;;;1713906;83;26695;-50
2022/09/27 05:22:51;;;;;;;30.10;22.37;;;;;;;;;;1715519;82;26308;-51
2022/09/27 05:25:19;;;;;;;27.22;21.77;;;;;;;;;;1714082;83;26297;-50
2022/09/27 05:27:47;;;;;;;31.23;23.12;;;;;;;;;;1711313;83;26415;-53
2022/09/27 05:30:14;;;;;;;26.87;21.40;;;;;;;;;;1712960;82;26773;-52
2022/09/27 05:32:47;;;;;;;32.30;22.22;;;;;;;;;;1713516;83;26289;-51
2022/09/27 05:35:14;;;;;;;29.07;21.87;;;;;;;;;;1723231;82;26348;-53
2022/09/27 05:37:41;;;;;;;29.20;22.40;;;;;;;;;;1727857;81;26297;-53
2022/09/27 05:40:09;;;;;;;27.87;22.02;;;;;;;;;;1727862;82;26296;-49
2022/09/27 05:42:38;;;;;;;28.05;21.40;;;;;;;;;;1737596;82;26265;-47
2022/09/27 05:45:06;;;;;;;29.48;21.77;;;;;;;;;;1726389;81;26798;-52
2022/09/27 05:47:33;;;;;;;30.62;22.95;;;;;;;;;;1726584;81;26300;-49
2022/09/27 05:50:01;;;;;;;41.60;30.55;;;;;;;;;;1725673;82;26304;-46
2022/09/27 05:52:28;;;;;;;43.52;31.45;;;;;;;;;;1725918;82;26317;-50
2022/09/27 05:54:56;;;;;;;55.48;39.30;;;;;;;;;;1724384;81;26354;-49
2022/09/27 05:57:23;;;;;;;51.63;37.95;;;;;;;;;;1729826;82;26332;-54
2022/09/27 05:59:51;;;;;;;48.83;34.65;;;;;;;;;;1727202;82;26712;-52
2022/09/27 06:02:18;;;;;;;45.58;33.38;;;;;;;;;;1727822;82;26300;-46
2022/09/27 06:04:45;;;;;;;40.70;30.92;;;;;;;;;;1725651;82;27414;-46
2022/09/27 06:07:13;;;;;;;42.30;29.12;;;;;;;;;;1727233;82;26798;-51
2022/09/27 06:09:40;;;;;;;42.90;29.18;;;;;;;;;;1720687;82;26316;-44
2022/09/27 06:12:10;;;;;;;38.10;27.13;;;;;;;;;;1728047;81;26305;-44
2022/09/27 06:14:37;;;;;;;36.65;26.40;;;;;;;;;;1727841;82;26289;-46
2022/09/27 06:17:04;;;;;;;34.25;25.12;;;;;;;;;;1727194;81;26285;-42
2022/09/27 06:19:32;;;;;;;31.48;24.65;;;;;;;;;;1727943;83;26749;-41
2022/09/27 06:21:59;;;;;;;32.88;24.77;;;;;;;;;;1723927;82;26726;-48
2022/09/27 06:24:26;;;;;;;31.60;23.52;;;;;;;;;;1727437;82;26383;-46
2022/09/27 06:26:53;;;;;;;31.33;23.40;;;;;;;;;;1711008;81;26363;-42
2022/09/27 06:29:21;;;;;;;31.35;21.65;;;;;;;;;;1728453;83;26325;-45
2022/09/27 06:31:48;;;;;;;29.37;22.32;;;;;;;;;;1726982;83;26298;-47
2022/09/27 06:34:15;;;;;;;26.55;19.90;;;;;;;;;;1721736;81;26298;-44
2022/09/27 06:36:42;;;;;;;27.27;19.57;;;;;;;;;;1711540;82;26344;-51
2022/09/27 06:39:10;;;;;;;24.35;19.35;;;;;;;;;;1704504;83;26301;-45
2022/09/27 06:41:37;;;;;;;24.18;18.05;;;;;;;;;;1707725;83;26285;-46
2022/09/27 06:44:04;;;;;;;21.45;16.85;;;;;;;;;;1706657;83;26289;-44
2022/09/27 06:46:31;;;;;;;22.77;17.40;;;;;;;;;;1710728;83;26303;-43
2022/09/27 06:48:59;;;;;;;20.15;16.15;;;;;;;;;;1716505;82;26336;-43
2022/09/27 06:51:26;;;;;;;19.77;15.40;;;;;;;;;;1706864;82;26373;-46
2022/09/27 06:53:53;;;;;;;16.75;14.50;;;;;;;;;;1715172;82;27098;-43
2022/09/27 06:56:21;;;;;;;17.27;13.72;;;;;;;;;;1724908;82;26905;-46
2022/09/27 07:01:34;;;;;;;14.98;12.47;;;;;;;;;;1707530;83;26323;-44
2022/09/27 07:04:01;;;;;;;15.65;12.70;;;;;;;;;;1702619;83;26702;-48
2022/09/27 07:06:30;;;;;;;13.75;11.43;;;;;;;;;;1709491;82;26694;-45
2022/09/27 07:08:57;;;;;;;13.95;10.50;;;;;;;;;;1709096;83;26882;-51
2022/09/27 07:11:24;;;;;;;14.78;10.95;;;;;;;;;;1720288;82;26872;-52
2022/09/27 07:13:52;;;;;;;12.23;10.25;;;;;;;;;;1725792;82;26302;-50
2022/09/27 07:16:19;;;;;;;10.53;9.33;;;;;;;;;;1714954;83;26238;-44
2022/09/27 07:18:48;;;;;;;10.88;9.23;;;;;;;;;;1714363;83;26299;-46
2022/09/27 07:21:15;;;;;;;9.70;8.70;;;;;;;;;;1709988;82;26286;-43
2022/09/27 07:23:43;;;;;;;9.20;8.20;;;;;;;;;;1714493;83;26286;-47
2022/09/27 07:26:10;;;;;;;9.63;8.13;;;;;;;;;;1707200;83;26755;-44
2022/09/27 07:28:40;;;;;;;9.30;8.03;;;;;;;;;;1715111;83;26270;-46
2022/09/27 07:31:07;;;;;;;8.05;7.25;;;;;;;;;;1714321;82;26385;-44
2022/09/27 07:33:35;;;;;;;8.60;6.85;;;;;;;;;;1715580;83;26376;-43
2022/09/27 07:36:09;;;;;;;7.85;7.05;;;;;;;;;;1720795;82;26340;-54
2022/09/27 07:38:36;;;;;;;8.35;6.80;;;;;;;;;;1716806;83;26300;-46
2022/09/27 07:41:07;;;;;;;6.42;5.85;;;;;;;;;;1728816;82;26375;-43
2022/09/27 07:43:36;;;;;;;6.12;5.53;;;;;;;;;;1712471;82;26360;-48
2022/09/27 07:46:03;;;;;;;6.42;5.83;;;;;;;;;;1708156;83;26302;-45
2022/09/27 07:48:31;;;;;;;5.40;4.90;;;;;;;;;;1713629;83;26316;-43
2022/09/27 07:50:58;;;;;;;5.75;5.15;;;;;;;;;;1715959;82;26282;-51
2022/09/27 07:53:26;;;;;;;5.55;5.05;;;;;;;;;;1716211;83;26569;-45
2022/09/27 07:55:54;;;;;;;5.35;4.85;;;;;;;;;;1720775;82;26366;-47
2022/09/27 07:58:21;;;;;;;5.10;4.60;;;;;;;;;;1719040;81;26848;-43
2022/09/27 08:00:48;;;;;;;5.00;4.50;;;;;;;;;;1726651;82;26238;-43
2022/09/27 08:03:16;;;;;;;4.70;4.30;;;;;;;;;;1717274;83;26259;-45
2022/09/27 08:05:46;;;;;;;4.30;3.90;;;;;;;;;;1724007;82;26780;-43
2022/09/27 08:08:14;;;;;;;3.90;3.60;;;;;;;;;;1714706;83;27011;-49
2022/09/27 08:10:43;;;;;;;3.85;3.55;;;;;;;;;;1719009;82;26391;-43
2022/09/27 08:13:11;;;;;;;3.65;3.35;;;;;;;;;;1728317;83;26289;-47
2022/09/27 08:15:38;;;;;;;3.35;3.15;;;;;;;;;;1727228;82;26870;-43
2022/09/27 08:18:06;;;;;;;3.22;3.02;;;;;;;;;;1728159;83;26273;-46
2022/09/27 08:20:33;;;;;;;2.62;2.50;;;;;;;;;;1724836;83;26642;-48
2022/09/27 08:23:03;;;;;;;3.00;2.80;;;;;;;;;;1717962;83;26574;-43
2022/09/27 08:25:30;;;;;;;2.58;2.47;;;;;;;;;;1714810;82;26902;-48
2022/09/27 08:27:58;;;;;;;2.45;2.35;;;;;;;;;;1713488;83;26331;-47
2022/09/27 08:30:26;;;;;;;2.75;2.55;;;;;;;;;;1714477;83;26784;-52
2022/09/27 08:32:58;;;;;;;2.62;2.42;;;;;;;;;;1712036;83;26386;-43
2022/09/27 08:35:28;;;;;;;2.60;2.50;;;;;;;;;;1717110;82;26925;-51
2022/09/27 08:37:58;;;;;;;2.30;2.20;;;;;;;;;;1737116;82;26549;-43
2022/09/27 08:40:27;;;;;;;2.20;2.10;;;;;;;;;;1720929;82;26741;-49
2022/09/27 08:42:56;;;;;;;2.20;2.10;;;;;;;;;;1717651;82;26346;-51
2022/09/27 08:45:28;;;;;;;1.95;1.85;;;;;;;;;;1725726;83;26355;-43
2022/09/27 08:48:00;;;;;;;2.00;1.90;;;;;;;;;;1712347;83;26319;-43
2022/09/27 08:50:34;;;;;;;2.00;1.90;;;;;;;;;;1715420;83;26756;-43
2022/09/27 08:53:15;;;;;;;3.08;1.80;;;;;;;;;;1722432;82;26337;-43
2022/09/27 08:55:47;;;;;;;1.50;1.50;;;;;;;;;;1723722;83;26372;-43
2022/09/27 08:58:28;;;;;;;1.60;1.60;;;;;;;;;;1725150;83;26387;-46
2022/09/27 09:00:57;;;;;;;1.70;1.60;;;;;;;;;;1726628;82;26274;-43
2022/09/27 09:03:25;;;;;;;1.62;1.62;;;;;;;;;;1725296;83;26254;-46
2022/09/27 09:06:11;;;;;;;1.50;1.50;;;;;;;;;;1727072;82;26434;-47
2022/09/27 09:08:39;;;;;;;1.42;1.42;;;;;;;;;;1728676;81;26970;-48
2022/09/27 09:14:04;;;;;;;1.80;1.70;;;;;;;;;;1731718;81;26398;-43
2022/09/27 09:16:39;;;;;;;1.40;1.30;;;;;;;;;;1725269;82;26765;-44
2022/09/27 09:19:11;;;;;;;1.30;1.30;;;;;;;;;;1720514;83;26750;-55
2022/09/27 09:21:46;;;;;;;1.30;1.30;;;;;;;;;;1712426;82;26323;-46
2022/09/27 09:24:18;;;;;;;1.40;1.40;;;;;;;;;;1705301;83;26346;-45
2022/09/27 09:26:59;;;;;;;1.30;1.30;;;;;;;;;;1713603;83;26740;-45
2022/09/27 09:29:44;;;;;;;1.30;1.30;;;;;;;;;;1721737;83;26357;-45
2022/09/27 09:32:30;;;;;;;1.50;1.50;;;;;;;;;;1716208;82;26362;-52
2022/09/27 09:35:01;;;;;;;1.30;1.30;;;;;;;;;;1725955;83;26709;-44
2022/09/27 09:37:33;;;;;;;1.42;1.42;;;;;;;;;;1725542;82;26745;-47
2022/09/27 09:40:02;;;;;;;1.40;1.40;;;;;;;;;;1723315;83;26218;-46
2022/09/27 09:42:31;;;;;;;1.27;1.27;;;;;;;;;;1722534;81;26333;-46
2022/09/27 09:44:59;;;;;;;1.20;1.20;;;;;;;;;;1721355;83;26347;-44
2022/09/27 09:47:38;;;;;;;1.20;1.20;;;;;;;;;;1719754;81;26312;-43
2022/09/27 09:50:07;;;;;;;1.30;1.30;;;;;;;;;;1721772;83;26348;-43
2022/09/27 09:52:36;;;;;;;1.15;1.15;;;;;;;;;;1722981;83;26344;-41
2022/09/27 09:55:07;;;;;;;1.35;1.35;;;;;;;;;;1711886;83;26318;-48
2022/09/27 09:57:42;;;;;;;1.30;1.30;;;;;;;;;;1717917;81;26248;-45
2022/09/27 10:00:14;;;;;;;1.45;1.45;;;;;;;;;;1712378;83;26321;-49
2022/09/27 10:02:42;;;;;;;1.30;1.30;;;;;;;;;;1721455;82;26299;-42
2022/09/27 10:05:11;;;;;;;1.10;1.10;;;;;;;;;;1711850;82;26306;-47
2022/09/27 10:07:39;;;;;;;1.30;1.20;;;;;;;;;;1714873;80;26230;-45
2022/09/27 10:10:07;;;;;;;1.12;1.12;;;;;;;;;;1709462;83;26373;-48
2022/09/27 10:12:35;;;;;;;1.20;1.20;;;;;;;;;;1726735;81;27462;-44
2022/09/27 10:15:04;;;;;;;1.20;1.20;;;;;;;;;;1727867;82;26308;-50
2022/09/27 10:17:35;;;;;;;1.20;1.20;;;;;;;;;;1730850;82;26241;-41
2022/09/27 10:20:04;;;;;;;1.10;1.10;;;;;;;;;;1731181;81;26320;-49
2022/09/27 10:22:32;;;;;;;1.20;1.20;;;;;;;;;;1728336;83;26702;-44
2022/09/27 10:25:02;;;;;;;1.00;1.00;;;;;;;;;;1728027;81;26313;-46
2022/09/27 10:27:31;;;;;;;1.20;1.20;;;;;;;;;;1726688;82;26279;-43
2022/09/27 10:29:59;;;;;;;1.22;1.22;;;;;;;;;;1720194;81;26312;-41
2022/09/27 10:32:30;;;;;;;1.30;1.30;;;;;;;;;;1716908;83;26302;-50
2022/09/27 10:34:58;;;;;;;1.20;1.20;;;;;;;;;;1719072;83;27500;-42
2022/09/27 10:37:25;;;;;;;1.20;1.20;;;;;;;;;;1720475;81;26786;-45
2022/09/27 10:39:53;;;;;;;1.20;1.20;;;;;;;;;;1717314;82;26277;-43
2022/09/27 10:42:38;;;;;;;1.30;1.30;;;;;;;;;;1720784;83;26336;-45
2022/09/27 10:45:10;;;;;;;1.22;1.22;;;;;;;;;;1724171;82;26309;-42
2022/09/27 10:47:37;;;;;;;1.22;1.22;;;;;;;;;;1705542;82;26821;-43
2022/09/27 10:50:06;;;;;;;1.22;1.22;;;;;;;;;;1721784;82;26741;-43
2022/09/27 10:52:34;;;;;;;1.27;1.27;;;;;;;;;;1714954;83;26793;-49
2022/09/27 10:55:15;;;;;;;1.20;1.20;;;;;;;;;;1718103;82;27326;-47
2022/09/27 10:57:43;;;;;;;1.40;1.40;;;;;;;;;;1716076;82;26913;-53
2022/09/27 11:00:22;;;;;;;1.50;1.50;;;;;;;;;;1717615;83;26755;-42
2022/09/27 11:02:56;;;;;;;1.45;1.45;;;;;;;;;;1714967;83;26339;-46
2022/09/27 11:05:28;;;;;;;1.30;1.30;;;;;;;;;;1716097;82;26416;-43
2022/09/27 11:07:57;;;;;;;1.55;1.55;;;;;;;;;;1727142;82;26277;-49
2022/09/27 11:10:30;;;;;;;1.60;1.60;;;;;;;;;;1725787;83;26287;-43
2022/09/27 11:13:14;;;;;;;1.40;1.40;;;;;;;;;;1749482;81;26741;-45
2022/09/27 11:15:49;;;;;;;1.65;1.65;;;;;;;;;;1729048;82;26243;-42
2022/09/27 11:18:29;;;;;;;1.50;1.50;;;;;;;;;;1720769;82;26262;-42
2022/09/27 11:21:08;;;;;;;1.50;1.50;;;;;;;;;;1723701;82;26295;-44
2022/09/27 11:23:36;;;;;;;1.70;1.70;;;;;;;;;;1722253;82;26297;-47
2022/09/27 11:26:06;;;;;;;1.60;1.60;;;;;;;;;;1710264;83;26299;-45
2022/09/27 11:28:35;;;;;;;1.70;1.70;;;;;;;;;;1725237;82;26395;-47
2022/09/27 11:31:10;;;;;;;1.60;1.60;;;;;;;;;;1726821;81;26637;-42
2022/09/27 11:33:51;;;;;;;1.55;1.55;;;;;;;;;;1717490;82;26792;-42
2022/09/27 11:36:36;;;;;;;1.77;1.77;;;;;;;;;;1727502;82;26367;-42
2022/09/27 11:39:07;;;;;;;1.60;1.60;;;;;;;;;;1727921;81;26312;-45
2022/09/27 11:41:42;;;;;;;1.80;1.80;;;;;;;;;;1726347;81;26234;-44
2022/09/27 11:44:14;;;;;;;1.95;1.92;;;;;;;;;;1707436;82;26299;-48
2022/09/27 11:46:41;;;;;;;2.00;1.90;;;;;;;;;;1719415;81;26289;-42
2022/09/27 11:49:13;;;;;;;1.80;1.80;;;;;;;;;;1703613;83;26307;-43
2022/09/27 11:51:48;;;;;;;2.00;2.00;;;;;;;;;;1706861;83;26383;-45
2022/09/27 11:54:23;;;;;;;2.00;1.92;;;;;;;;;;1704958;83;26295;-45
2022/09/27 11:57:06;;;;;;;1.98;1.98;;;;;;;;;;1706600;83;26711;-44
2022/09/27 11:59:36;;;;;;;2.20;2.10;;;;;;;;;;1717455;83;26328;-47
2022/09/27 12:02:17;;;;;;;2.20;2.10;;;;;;;;;;1713969;81;26365;-44
2022/09/27 12:04:49;;;;;;;1.95;1.87;;;;;;;;;;1715531;81;26283;-46
2022/09/27 12:07:33;;;;;;;2.05;1.95;;;;;;;;;;1722937;82;26355;-50
2022/09/27 12:10:02;;;;;;;2.00;2.00;;;;;;;;;;1713726;81;26754;-47
2022/09/27 12:12:31;;;;;;;2.05;2.05;;;;;;;;;;1743774;81;26321;-45
2022/09/27 12:15:02;;;;;;;2.00;2.00;;;;;;;;;;1735890;82;27567;-46
2022/09/27 12:17:31;;;;;;;2.37;2.27;;;;;;;;;;1718892;83;26765;-43
2022/09/27 12:19:59;;;;;;;2.20;2.20;;;;;;;;;;1721841;82;26757;-42
2022/09/27 12:22:28;;;;;;;2.10;2.10;;;;;;;;;;1727953;82;26305;-48
2022/09/27 12:24:56;;;;;;;2.10;2.00;;;;;;;;;;1717846;83;26226;-46
2022/09/27 12:27:40;;;;;;;2.20;2.10;;;;;;;;;;1708501;83;26330;-45
2022/09/27 12:30:09;;;;;;;2.20;2.20;;;;;;;;;;1708631;83;26309;-49
2022/09/27 12:32:39;;;;;;;2.30;2.20;;;;;;;;;;1721321;82;26296;-45
2022/09/27 12:35:12;;;;;;;2.40;2.30;;;;;;;;;;1714117;83;26603;-43
2022/09/27 12:37:41;;;;;;;2.47;2.37;;;;;;;;;;1709144;81;26303;-46
2022/09/27 12:40:16;;;;;;;2.40;2.30;;;;;;;;;;1711783;82;26749;-43
2022/09/27 12:43:03;;;;;;;2.20;2.10;;;;;;;;;;1706793;82;26256;-45
2022/09/27 12:45:49;;;;;;;2.20;2.10;;;;;;;;;;1702619;83;26819;-44
2022/09/27 12:48:24;;;;;;;2.47;2.37;;;;;;;;;;1709464;83;26271;-53
2022/09/27 12:50:55;;;;;;;2.52;2.33;;;;;;;;;;1692678;83;27583;-49
2022/09/27 12:53:24;;;;;;;2.45;2.35;;;;;;;;;;1695517;83;26794;-43
2022/09/27 12:55:56;;;;;;;2.35;2.25;;;;;;;;;;1694768;82;26777;-50
2022/09/27 12:58:34;;;;;;;2.40;2.30;;;;;;;;;;1706099;83;26328;-43
2022/09/27 13:01:05;;;;;;;2.20;2.20;;;;;;;;;;1712833;83;26344;-41
2022/09/27 13:03:34;;;;;;;2.58;2.47;;;;;;;;;;1710554;83;26311;-46
2022/09/27 13:06:12;;;;;;;2.37;2.27;;;;;;;;;;1712982;82;26345;-46
2022/09/27 13:08:53;;;;;;;2.40;2.30;;;;;;;;;;1710472;83;26248;-47
2022/09/27 13:11:25;;;;;;;2.40;2.30;;;;;;;;;;1721802;82;27486;-42
2022/09/27 13:14:00;;;;;;;2.52;2.42;;;;;;;;;;1723380;82;26285;-45
2022/09/27 13:16:28;;;;;;;2.62;2.52;;;;;;;;;;1702802;83;26361;-42
2022/09/27 13:19:00;;;;;;;2.33;2.22;;;;;;;;;;1698008;83;27406;-44
2022/09/27 13:21:48;;;;;;;2.47;2.37;;;;;;;;;;1711170;83;26356;-43
2022/09/27 13:24:33;;;;;;;2.58;2.47;;;;;;;;;;1704379;82;26296;-49
2022/09/27 13:27:01;;;;;;;2.50;2.40;;;;;;;;;;1702844;83;26702;-45
2022/09/27 13:29:29;;;;;;;2.37;2.27;;;;;;;;;;1700172;83;26299;-42
2022/09/27 13:31:58;;;;;;;2.47;2.37;;;;;;;;;;1708362;82;26352;-47
2022/09/27 13:34:42;;;;;;;2.12;2.10;;;;;;;;;;1705867;83;26428;-47
2022/09/27 13:37:24;;;;;;;2.37;2.27;;;;;;;;;;1708930;82;26884;-50
2022/09/27 13:39:52;;;;;;;2.10;2.10;;;;;;;;;;1712278;83;26361;-53
2022/09/27 13:42:21;;;;;;;2.37;2.27;;;;;;;;;;1711078;83;26270;-43
2022/09/27 13:45:00;;;;;;;2.40;2.30;;;;;;;;;;1712858;83;26305;-47
2022/09/27 13:47:36;;;;;;;2.27;2.25;;;;;;;;;;1677824;84;26364;-50
2022/09/27 13:50:05;;;;;;;2.42;2.33;;;;;;;;;;1712987;83;26857;-46
2022/09/27 13:52:34;;;;;;;2.45;2.35;;;;;;;;;;1708261;82;26754;-48
2022/09/27 13:55:02;;;;;;;2.40;2.30;;;;;;;;;;1708053;83;26301;-42
2022/09/27 13:57:44;;;;;;;2.70;2.60;;;;;;;;;;1714200;83;26369;-47
2022/09/27 14:00:20;;;;;;;3.15;2.80;;;;;;;;;;1700189;82;26403;-51
2022/09/27 14:03:05;;;;;;;2.80;2.50;;;;;;;;;;1713257;83;26869;-50
2022/09/27 14:05:43;;;;;;;3.00;2.80;;;;;;;;;;1712834;82;26285;-51
2022/09/27 14:08:12;;;;;;;2.80;2.70;;;;;;;;;;1687586;83;26286;-48
2022/09/27 14:10:42;;;;;;;3.98;2.90;;;;;;;;;;1713642;83;26339;-54
2022/09/27 14:13:10;;;;;;;3.08;2.98;;;;;;;;;;1704578;83;26329;-48
2022/09/27 14:15:38;;;;;;;3.35;3.02;;;;;;;;;;1706952;83;26794;-50
2022/09/27 14:18:06;;;;;;;6.17;3.05;;;;;;;;;;1708540;82;26377;-56
2022/09/27 14:20:35;;;;;;;3.10;2.90;;;;;;;;;;1710697;82;26319;-50
2022/09/27 14:23:03;;;;;;;3.80;3.52;;;;;;;;;;1717024;82;26310;-48
2022/09/27 14:25:30;;;;;;;5.97;4.65;;;;;;;;;;1714487;83;26930;-50
2022/09/27 14:27:59;;;;;;;5.62;5.10;;;;;;;;;;1715903;82;26274;-48
2022/09/27 14:30:28;;;;;;;5.30;4.80;;;;;;;;;;1712307;83;26341;-53
2022/09/27 14:33:00;;;;;;;4.95;4.55;;;;;;;;;;1711049;83;26368;-43
2022/09/27 14:38:12;;;;;;;5.35;4.78;;;;;;;;;;1715652;82;26365;-42
2022/09/27 14:40:59;;;;;;;5.97;5.03;;;;;;;;;;1709301;82;26766;-46
2022/09/27 14:43:27;;;;;;;5.28;4.78;;;;;;;;;;1713816;81;26826;-44
2022/09/27 14:46:05;;;;;;;7.30;5.42;;;;;;;;;;1719931;82;26831;-44
2022/09/27 14:48:32;;;;;;;5.40;5.00;;;;;;;;;;1726538;83;26300;-49
2022/09/27 14:51:04;;;;;;;5.33;4.83;;;;;;;;;;1727032;83;26363;-55
2022/09/27 14:53:35;;;;;;;6.45;5.10;;;;;;;;;;1712904;82;26301;-53
2022/09/27 14:56:06;;;;;;;5.10;4.62;;;;;;;;;;1722340;82;26301;-54
2022/09/27 14:58:32;;;;;;;4.95;4.53;;;;;;;;;;1720891;82;26296;-47
2022/09/27 15:00:59;;;;;;;7.33;5.00;;;;;;;;;;1732231;82;26359;-45